sensor_id;sensor_type;location;lat;lon;timestamp;pressure;altitude;pressure_sealevel;temperature;humidity
58955;BME280;45815;52.334;5.024;2023-11-19T00:02:07;100739.72;;;13.33;100.00
58955;BME280;45815;52.334;5.024;2023-11-19T00:04:36;100749.41;;;13.36;100.00
58955;BME280;45815;52.334;5.024;2023-11-19T00:07:02;100746.78;;;13.39;100.00
58955;BME280;45815;52.334;5.024;2023-11-19T00:09:29;100745.03;;;13.41;100.00
58955;BME280;45815;52.334;5.024;2023-11-19T00:11:55;100753.78;;;13.37;100.00
58955;BME280;45815;52.334;5.024;2023-11-19T00:14:20;100747.66;;;13.38;100.00
58955;BME280;45815;52.334;5.024;2023-11-19T00:16:46;100743.22;;;13.34;100.00
58955;BME280;45815;52.334;5.024;2023-11-19T00:19:11;100753.81;;;13.38;100.00
58955;BME280;45815;52.334;5.024;2023-11-19T00:21:37;100745.91;;;13.40;100.00
58955;BME280;45815;52.334;5.024;2023-11-19T00:24:02;100730.03;;;13.34;100.00
58955;BME280;45815;52.334;5.024;2023-11-19T00:26:29;100723.03;;;13.36;100.00
58955;BME280;45815;52.334;5.024;2023-11-19T00:28:56;100731.78;;;13.32;100.00
58955;BME280;45815;52.334;5.024;2023-11-19T00:31:22;100714.22;;;13.30;100.00
58955;BME280;45815;52.334;5.024;2023-11-19T00:33:48;100724.78;;;13.30;100.00
58955;BME280;45815;52.334;5.024;2023-11-19T00:36:13;100707.19;;;13.28;100.00
58955;BME280;45815;52.334;5.024;2023-11-19T00:38:38;100720.31;;;13.26;100.00
58955;BME280;45815;52.334;5.024;2023-11-19T00:41:04;100722.94;;;13.23;100.00
58955;BME280;45815;52.334;5.024;2023-11-19T00:43:29;100727.31;;;13.21;100.00
58955;BME280;45815;52.334;5.024;2023-11-19T00:45:55;100726.41;;;13.18;100.00
58955;BME280;45815;52.334;5.024;2023-11-19T00:48:20;100727.28;;;13.17;100.00
58955;BME280;45815;52.334;5.024;2023-11-19T00:50:45;100721.09;;;13.13;100.00
58955;BME280;45815;52.334;5.024;2023-11-19T00:53:11;100717.59;;;13.11;100.00
58955;BME280;45815;52.334;5.024;2023-11-19T00:55:37;100719.34;;;13.09;100.00
58955;BME280;45815;52.334;5.024;2023-11-19T00:58:02;100730.75;;;13.06;100.00
58955;BME280;45815;52.334;5.024;2023-11-19T01:00:28;100722.81;;;13.02;100.00
58955;BME280;45815;52.334;5.024;2023-11-19T01:02:53;100716.63;;;13.01;100.00
58955;BME280;45815;52.334;5.024;2023-11-19T01:05:20;100722.75;;;12.99;100.00
58955;BME280;45815;52.334;5.024;2023-11-19T01:07:49;100715.72;;;12.98;100.00
58955;BME280;45815;52.334;5.024;2023-11-19T01:10:15;100706.06;;;12.95;100.00
58955;BME280;45815;52.334;5.024;2023-11-19T01:12:44;100705.19;;;12.95;100.00
58955;BME280;45815;52.334;5.024;2023-11-19T01:15:09;100693.72;;;12.91;100.00
58955;BME280;45815;52.334;5.024;2023-11-19T01:17:37;100692.00;;;12.95;100.00
58955;BME280;45815;52.334;5.024;2023-11-19T01:20:02;100692.88;;;12.94;100.00
58955;BME280;45815;52.334;5.024;2023-11-19T01:22:31;100685.84;;;12.93;100.00
58955;BME280;45815;52.334;5.024;2023-11-19T01:24:56;100684.94;;;12.92;100.00
58955;BME280;45815;52.334;5.024;2023-11-19T01:27:24;100689.31;;;12.88;100.00
58955;BME280;45815;52.334;5.024;2023-11-19T01:29:50;100672.59;;;12.85;100.00
58955;BME280;45815;52.334;5.024;2023-11-19T01:32:15;100684.91;;;12.84;100.00
58955;BME280;45815;52.334;5.024;2023-11-19T01:34:41;100682.25;;;12.84;100.00
58955;BME280;45815;52.334;5.024;2023-11-19T01:37:06;100692.78;;;12.81;100.00
58955;BME280;45815;52.334;5.024;2023-11-19T01:39:34;100682.25;;;12.81;100.00
58955;BME280;45815;52.334;5.024;2023-11-19T01:42:00;100687.53;;;12.81;100.00
58955;BME280;45815;52.334;5.024;2023-11-19T01:44:25;100688.34;;;12.77;100.00
58955;BME280;45815;52.334;5.024;2023-11-19T01:46:50;100706.78;;;12.74;100.00
58955;BME280;45815;52.334;5.024;2023-11-19T01:49:17;100708.56;;;12.77;100.00
58955;BME280;45815;52.334;5.024;2023-11-19T01:51:43;100713.84;;;12.78;100.00
58955;BME280;45815;52.334;5.024;2023-11-19T01:54:08;100707.69;;;12.79;100.00
58955;BME280;45815;52.334;5.024;2023-11-19T01:56:35;100712.94;;;12.78;100.00
58955;BME280;45815;52.334;5.024;2023-11-19T01:59:01;100687.38;;;12.66;100.00
58955;BME280;45815;52.334;5.024;2023-11-19T02:01:27;100697.16;;;12.76;100.00
58955;BME280;45815;52.334;5.024;2023-11-19T02:03:55;100681.31;;;12.75;100.00
58955;BME280;45815;52.334;5.024;2023-11-19T02:06:21;100687.44;;;12.72;100.00
58955;BME280;45815;52.334;5.024;2023-11-19T02:08:46;100688.28;;;12.71;100.00
58955;BME280;45815;52.334;5.024;2023-11-19T02:11:12;100701.47;;;12.71;100.00
58955;BME280;45815;52.334;5.024;2023-11-19T02:13:37;100695.28;;;12.64;100.00
58955;BME280;45815;52.334;5.024;2023-11-19T02:16:03;100697.91;;;12.66;100.00
58955;BME280;45815;52.334;5.024;2023-11-19T02:18:30;100673.25;;;12.55;100.00
58955;BME280;45815;52.334;5.024;2023-11-19T02:20:57;100692.66;;;12.64;100.00
58955;BME280;45815;52.334;5.024;2023-11-19T02:23:23;100697.91;;;12.63;100.00
58955;BME280;45815;52.334;5.024;2023-11-19T02:28:45;100696.97;;;12.59;100.00
58955;BME280;45815;52.334;5.024;2023-11-19T02:31:11;100694.34;;;12.58;100.00
58955;BME280;45815;52.334;5.024;2023-11-19T02:33:37;100705.78;;;12.61;100.00
58955;BME280;45815;52.334;5.024;2023-11-19T02:36:04;100689.97;;;12.61;100.00
58955;BME280;45815;52.334;5.024;2023-11-19T02:38:30;100688.25;;;12.63;100.00
58955;BME280;45815;52.334;5.024;2023-11-19T02:40:56;100673.34;;;12.65;100.00
58955;BME280;45815;52.334;5.024;2023-11-19T02:43:22;100679.50;;;12.64;100.00
58955;BME280;45815;52.334;5.024;2023-11-19T02:45:48;100668.97;;;12.64;100.00
58955;BME280;45815;52.334;5.024;2023-11-19T02:48:13;100678.59;;;12.64;100.00
58955;BME280;45815;52.334;5.024;2023-11-19T02:50:41;100692.66;;;12.64;100.00
58955;BME280;45815;52.334;5.024;2023-11-19T02:53:07;100678.56;;;12.61;100.00
58955;BME280;45815;52.334;5.024;2023-11-19T02:55:32;100676.81;;;12.61;100.00
58955;BME280;45815;52.334;5.024;2023-11-19T02:58:02;100678.56;;;12.58;100.00
58955;BME280;45815;52.334;5.024;2023-11-19T03:00:33;100671.47;;;12.49;100.00
58955;BME280;45815;52.334;5.024;2023-11-19T03:03:01;100670.53;;;12.44;100.00
58955;BME280;45815;52.334;5.024;2023-11-19T03:05:42;100670.47;;;12.35;100.00
58955;BME280;45815;52.334;5.024;2023-11-19T03:08:09;100682.81;;;12.43;100.00
58955;BME280;45815;52.334;5.024;2023-11-19T03:10:35;100682.78;;;12.40;100.00
58955;BME280;45815;52.334;5.024;2023-11-19T03:13:01;100687.16;;;12.38;100.00
58955;BME280;45815;52.334;5.024;2023-11-19T03:15:27;100684.47;;;12.29;100.00
58955;BME280;45815;52.334;5.024;2023-11-19T03:17:52;100693.28;;;12.34;100.00
58955;BME280;45815;52.334;5.024;2023-11-19T03:20:18;100674.81;;;12.31;100.00
58955;BME280;45815;52.334;5.024;2023-11-19T03:22:43;100673.06;;;12.33;100.00
58955;BME280;45815;52.334;5.024;2023-11-19T03:25:09;100681.84;;;12.32;100.00
58955;BME280;45815;52.334;5.024;2023-11-19T03:27:36;100687.97;;;12.30;100.00
58955;BME280;45815;52.334;5.024;2023-11-19T03:30:02;100685.31;;;12.31;100.00
58955;BME280;45815;52.334;5.024;2023-11-19T03:32:31;100673.88;;;12.26;100.00
58955;BME280;45815;52.334;5.024;2023-11-19T03:34:56;100681.75;;;12.23;100.00
58955;BME280;45815;52.334;5.024;2023-11-19T03:37:23;100661.50;;;12.14;100.00
58955;BME280;45815;52.334;5.024;2023-11-19T03:39:49;100679.16;;;12.24;100.00
58955;BME280;45815;52.334;5.024;2023-11-19T03:42:14;100676.50;;;12.23;100.00
58955;BME280;45815;52.334;5.024;2023-11-19T03:44:40;100666.81;;;12.20;100.00
58955;BME280;45815;52.334;5.024;2023-11-19T03:47:05;100683.56;;;12.27;100.00
58955;BME280;45815;52.334;5.024;2023-11-19T03:49:32;100682.66;;;12.27;100.00
58955;BME280;45815;52.334;5.024;2023-11-19T03:51:57;100675.63;;;12.25;100.00
58955;BME280;45815;52.334;5.024;2023-11-19T03:54:22;100680.00;;;12.23;100.00
58955;BME280;45815;52.334;5.024;2023-11-19T03:56:48;100673.84;;;12.21;100.00
58955;BME280;45815;52.334;5.024;2023-11-19T03:59:14;100673.88;;;12.24;100.00
58955;BME280;45815;52.334;5.024;2023-11-19T04:01:40;100677.38;;;12.23;100.00
58955;BME280;45815;52.334;5.024;2023-11-19T04:04:06;100677.34;;;12.20;100.00
58955;BME280;45815;52.334;5.024;2023-11-19T04:06:31;100673.88;;;12.24;100.00
58955;BME280;45815;52.334;5.024;2023-11-19T04:08:57;100680.84;;;12.21;100.00
58955;BME280;45815;52.334;5.024;2023-11-19T04:11:22;100685.25;;;12.23;100.00
58955;BME280;45815;52.334;5.024;2023-11-19T04:13:48;100686.09;;;12.18;100.00
58955;BME280;45815;52.334;5.024;2023-11-19T04:16:14;100680.84;;;12.18;100.00
58955;BME280;45815;52.334;5.024;2023-11-19T04:18:40;100695.72;;;12.17;100.00
58955;BME280;45815;52.334;5.024;2023-11-19T04:21:07;100704.50;;;12.16;100.00
58955;BME280;45815;52.334;5.024;2023-11-19T04:23:32;100696.53;;;12.10;100.00
58955;BME280;45815;52.334;5.024;2023-11-19T04:25:58;100700.03;;;12.09;100.00
58955;BME280;45815;52.334;5.024;2023-11-19T04:28:23;100702.69;;;12.11;100.00
58955;BME280;45815;52.334;5.024;2023-11-19T04:30:52;100689.50;;;12.09;100.00
58955;BME280;45815;52.334;5.024;2023-11-19T04:33:18;100686.81;;;12.04;100.00
58955;BME280;45815;52.334;5.024;2023-11-19T04:35:44;100696.50;;;12.07;100.00
58955;BME280;45815;52.334;5.024;2023-11-19T04:38:09;100684.22;;;12.06;100.00
58955;BME280;45815;52.334;5.024;2023-11-19T04:40:34;100688.56;;;12.06;100.00
58955;BME280;45815;52.334;5.024;2023-11-19T04:43:00;100691.22;;;12.07;100.00
58955;BME280;45815;52.334;5.024;2023-11-19T04:45:25;100682.47;;;12.07;100.00
58955;BME280;45815;52.334;5.024;2023-11-19T04:47:51;100692.13;;;12.06;100.00
58955;BME280;45815;52.334;5.024;2023-11-19T04:50:16;100666.59;;;11.97;100.00
58955;BME280;45815;52.334;5.024;2023-11-19T04:52:41;100678.09;;;12.09;100.00
58955;BME280;45815;52.334;5.024;2023-11-19T04:55:10;100674.56;;;12.07;100.00
58955;BME280;45815;52.334;5.024;2023-11-19T04:57:37;100676.38;;;12.11;100.00
58955;BME280;45815;52.334;5.024;2023-11-19T05:00:03;100675.53;;;12.13;100.00
58955;BME280;45815;52.334;5.024;2023-11-19T05:02:30;100670.25;;;12.15;100.00
58955;BME280;45815;52.334;5.024;2023-11-19T05:04:55;100667.63;;;12.15;100.00
58955;BME280;45815;52.334;5.024;2023-11-19T05:07:20;100681.66;;;12.14;100.00
58955;BME280;45815;52.334;5.024;2023-11-19T05:09:46;100696.50;;;12.07;100.00
58955;BME280;45815;52.334;5.024;2023-11-19T05:12:11;100687.75;;;12.10;100.00
58955;BME280;45815;52.334;5.024;2023-11-19T05:14:38;100685.09;;;12.07;100.00
58955;BME280;45815;52.334;5.024;2023-11-19T05:17:03;100683.28;;;12.02;100.00
58955;BME280;45815;52.334;5.024;2023-11-19T05:19:29;100688.59;;;12.04;100.00
58955;BME280;45815;52.334;5.024;2023-11-19T05:21:54;100688.53;;;11.99;100.00
58955;BME280;45815;52.334;5.024;2023-11-19T05:24:19;100676.22;;;11.98;100.00
58955;BME280;45815;52.334;5.024;2023-11-19T05:26:45;100678.84;;;11.98;100.00
58955;BME280;45815;52.334;5.024;2023-11-19T05:29:10;100683.19;;;11.93;100.00
58955;BME280;45815;52.334;5.024;2023-11-19T05:31:35;100690.16;;;11.88;100.00
58955;BME280;45815;52.334;5.024;2023-11-19T05:34:01;100698.09;;;11.93;100.00
58955;BME280;45815;52.334;5.024;2023-11-19T05:36:26;100701.56;;;11.89;100.00
58955;BME280;45815;52.334;5.024;2023-11-19T05:38:52;100688.44;;;11.93;100.00
58955;BME280;45815;52.334;5.024;2023-11-19T05:41:18;100692.81;;;11.90;100.00
58955;BME280;45815;52.334;5.024;2023-11-19T05:43:43;100694.56;;;11.91;100.00
58955;BME280;45815;52.334;5.024;2023-11-19T05:46:08;100688.41;;;11.89;100.00
58955;BME280;45815;52.334;5.024;2023-11-19T05:48:34;100701.56;;;11.87;100.00
58955;BME280;45815;52.334;5.024;2023-11-19T05:50:59;100683.97;;;11.86;100.00
58955;BME280;45815;52.334;5.024;2023-11-19T05:53:25;100690.16;;;11.88;100.00
58955;BME280;45815;52.334;5.024;2023-11-19T05:55:51;100694.53;;;11.88;100.00
58955;BME280;45815;52.334;5.024;2023-11-19T05:58:23;100694.53;;;11.88;100.00
58955;BME280;45815;52.334;5.024;2023-11-19T06:00:50;100682.19;;;11.83;100.00
58955;BME280;45815;52.334;5.024;2023-11-19T06:03:16;100690.09;;;11.85;100.00
58955;BME280;45815;52.334;5.024;2023-11-19T06:05:44;100698.84;;;11.84;100.00
58955;BME280;45815;52.334;5.024;2023-11-19T06:08:10;100702.38;;;11.86;100.00
58955;BME280;45815;52.334;5.024;2023-11-19T06:10:38;100696.28;;;11.89;100.00
58955;BME280;45815;52.334;5.024;2023-11-19T06:13:04;100702.44;;;11.89;100.00
58955;BME280;45815;52.334;5.024;2023-11-19T06:15:30;100700.69;;;11.88;100.00
58955;BME280;45815;52.334;5.024;2023-11-19T06:17:56;100697.16;;;11.88;100.00
58955;BME280;45815;52.334;5.024;2023-11-19T06:20:24;100693.56;;;11.84;100.00
58955;BME280;45815;52.334;5.024;2023-11-19T06:22:50;100697.16;;;11.89;100.00
58955;BME280;45815;52.334;5.024;2023-11-19T06:25:15;100685.78;;;11.89;100.00
58955;BME280;45815;52.334;5.024;2023-11-19T06:27:42;100680.56;;;11.92;100.00
58955;BME280;45815;52.334;5.024;2023-11-19T06:30:07;100678.69;;;11.86;100.00
58955;BME280;45815;52.334;5.024;2023-11-19T06:32:33;100672.50;;;11.78;100.00
58955;BME280;45815;52.334;5.024;2023-11-19T06:34:59;100674.25;;;11.79;100.00
58955;BME280;45815;52.334;5.024;2023-11-19T06:37:24;100678.66;;;11.81;100.00
58955;BME280;45815;52.334;5.024;2023-11-19T06:39:49;100680.38;;;11.79;100.00
58955;BME280;45815;52.334;5.024;2023-11-19T06:42:15;100684.78;;;11.80;100.00
58955;BME280;45815;52.334;5.024;2023-11-19T06:44:40;100692.59;;;11.74;100.00
58955;BME280;45815;52.334;5.024;2023-11-19T06:47:06;100699.66;;;11.78;100.00
58955;BME280;45815;52.334;5.024;2023-11-19T06:49:31;100707.53;;;11.78;100.00
58955;BME280;45815;52.334;5.024;2023-11-19T06:51:57;100705.72;;;11.73;100.00
58955;BME280;45815;52.334;5.024;2023-11-19T06:54:22;100696.97;;;11.74;100.00
58955;BME280;45815;52.334;5.024;2023-11-19T06:56:48;100697.00;;;11.77;100.00
58955;BME280;45815;52.334;5.024;2023-11-19T06:59:14;100703.13;;;11.77;100.00
58955;BME280;45815;52.334;5.024;2023-11-19T07:01:39;100697.81;;;11.73;100.00
58955;BME280;45815;52.334;5.024;2023-11-19T07:04:10;100719.75;;;11.75;100.00
58955;BME280;45815;52.334;5.024;2023-11-19T07:06:36;100717.97;;;11.72;100.00
58955;BME280;45815;52.334;5.024;2023-11-19T07:09:02;100710.97;;;11.73;100.00
58955;BME280;45815;52.334;5.024;2023-11-19T07:11:36;100724.16;;;11.74;100.00
58955;BME280;45815;52.334;5.024;2023-11-19T07:14:02;100728.63;;;11.81;100.00
58955;BME280;45815;52.334;5.024;2023-11-19T07:16:28;100711.09;;;11.80;100.00
58955;BME280;45815;52.334;5.024;2023-11-19T07:18:53;100719.09;;;11.88;100.00
58955;BME280;45815;52.334;5.024;2023-11-19T07:21:19;100733.09;;;11.89;100.00
58955;BME280;45815;52.334;5.024;2023-11-19T07:23:45;100734.91;;;11.93;100.00
58955;BME280;45815;52.334;5.024;2023-11-19T07:26:11;100724.44;;;11.94;100.00
58955;BME280;45815;52.334;5.024;2023-11-19T07:28:37;100735.84;;;11.96;100.00
58955;BME280;45815;52.334;5.024;2023-11-19T07:31:03;100720.94;;;11.97;100.00
58955;BME280;45815;52.334;5.024;2023-11-19T07:33:28;100731.50;;;12.00;100.00
58955;BME280;45815;52.334;5.024;2023-11-19T07:35:55;100734.19;;;12.04;100.00
58955;BME280;45815;52.334;5.024;2023-11-19T07:38:20;100740.28;;;12.02;100.00
58955;BME280;45815;52.334;5.024;2023-11-19T07:40:45;100730.66;;;12.06;100.00
58955;BME280;45815;52.334;5.024;2023-11-19T07:43:11;100737.75;;;12.10;100.00
58955;BME280;45815;52.334;5.024;2023-11-19T07:45:36;100742.16;;;12.11;100.00
58955;BME280;45815;52.334;5.024;2023-11-19T07:48:01;100742.19;;;12.14;100.00
58955;BME280;45815;52.334;5.024;2023-11-19T07:50:27;100736.88;;;12.12;100.00
58955;BME280;45815;52.334;5.024;2023-11-19T07:52:52;100741.34;;;12.18;100.00
58955;BME280;45815;52.334;5.024;2023-11-19T07:55:18;100729.94;;;12.16;100.00
58955;BME280;45815;52.334;5.024;2023-11-19T07:57:44;100744.81;;;12.14;100.00
58955;BME280;45815;52.334;5.024;2023-11-19T08:00:10;100739.53;;;12.14;100.00
58955;BME280;45815;52.334;5.024;2023-11-19T08:02:39;100736.94;;;12.15;100.00
58955;BME280;45815;52.334;5.024;2023-11-19T08:05:05;100733.44;;;12.16;100.00
58955;BME280;45815;52.334;5.024;2023-11-19T08:07:31;100734.38;;;12.20;100.00
58955;BME280;45815;52.334;5.024;2023-11-19T08:09:56;100724.72;;;12.20;100.00
58955;BME280;45815;52.334;5.024;2023-11-19T08:12:22;100721.19;;;12.18;100.00
58955;BME280;45815;52.334;5.024;2023-11-19T08:14:47;100735.22;;;12.19;100.00
58955;BME280;45815;52.334;5.024;2023-11-19T08:17:12;100727.34;;;12.22;100.00
58955;BME280;45815;52.334;5.024;2023-11-19T08:19:38;100723.84;;;12.23;100.00
58955;BME280;45815;52.334;5.024;2023-11-19T08:22:03;100734.34;;;12.21;100.00
58955;BME280;45815;52.334;5.024;2023-11-19T08:24:28;100739.66;;;12.23;100.00
58955;BME280;45815;52.334;5.024;2023-11-19T08:26:54;100741.44;;;12.27;100.00
58955;BME280;45815;52.334;5.024;2023-11-19T08:29:19;100743.25;;;12.33;100.00
58955;BME280;45815;52.334;5.024;2023-11-19T08:31:45;100745.06;;;12.38;100.00
58955;BME280;45815;52.334;5.024;2023-11-19T08:34:11;100738.03;;;12.37;100.00
58955;BME280;45815;52.334;5.024;2023-11-19T08:36:36;100739.75;;;12.35;100.00
58955;BME280;45815;52.334;5.024;2023-11-19T08:39:02;100750.28;;;12.35;100.00
58955;BME280;45815;52.334;5.024;2023-11-19T08:41:28;100741.50;;;12.33;100.00
58955;BME280;45815;52.334;5.024;2023-11-19T08:43:53;100752.88;;;12.31;100.00
58955;BME280;45815;52.334;5.024;2023-11-19T08:46:19;100750.28;;;12.35;100.00
58955;BME280;45815;52.334;5.024;2023-11-19T08:48:44;100739.75;;;12.35;100.00
58955;BME280;45815;52.334;5.024;2023-11-19T08:51:11;100739.78;;;12.38;100.00
58955;BME280;45815;52.334;5.024;2023-11-19T08:53:37;100744.25;;;12.44;100.00
58955;BME280;45815;52.334;5.024;2023-11-19T08:56:02;100759.16;;;12.43;100.00
58955;BME280;45815;52.334;5.024;2023-11-19T08:58:28;100736.31;;;12.39;100.00
58955;BME280;45815;52.334;5.024;2023-11-19T09:00:54;100744.22;;;12.42;100.00
58955;BME280;45815;52.334;5.024;2023-11-19T09:03:19;100741.66;;;12.49;100.00
58955;BME280;45815;52.334;5.024;2023-11-19T09:05:45;100739.03;;;12.49;100.00
58955;BME280;45815;52.334;5.024;2023-11-19T09:08:11;100734.66;;;12.51;100.00
58955;BME280;45815;52.334;5.024;2023-11-19T09:10:37;100736.41;;;12.52;100.00
58955;BME280;45815;52.334;5.024;2023-11-19T09:13:02;100734.69;;;12.57;100.00
58955;BME280;45815;52.334;5.024;2023-11-19T09:15:29;100738.28;;;12.62;100.00
58955;BME280;45815;52.334;5.024;2023-11-19T09:17:54;100737.47;;;12.69;100.00
58955;BME280;45815;52.334;5.024;2023-11-19T09:20:20;100731.34;;;12.73;100.00
58955;BME280;45815;52.334;5.024;2023-11-19T09:22:45;100711.97;;;12.66;100.00
58955;BME280;45815;52.334;5.024;2023-11-19T09:25:11;100730.47;;;12.74;100.00
58955;BME280;45815;52.334;5.024;2023-11-19T09:27:37;100719.94;;;12.74;100.00
58955;BME280;45815;52.334;5.024;2023-11-19T09:30:03;100750.66;;;12.75;100.00
58955;BME280;45815;52.334;5.024;2023-11-19T09:32:29;100735.78;;;12.80;100.00
58955;BME280;45815;52.334;5.024;2023-11-19T09:34:54;100731.47;;;12.85;100.00
58955;BME280;45815;52.334;5.024;2023-11-19T09:37:19;100726.19;;;12.85;100.00
58955;BME280;45815;52.334;5.024;2023-11-19T09:39:45;100730.56;;;12.85;100.00
58955;BME280;45815;52.334;5.024;2023-11-19T09:42:11;100728.81;;;12.84;100.00
58955;BME280;45815;52.334;5.024;2023-11-19T09:44:38;100728.78;;;12.82;100.00
58955;BME280;45815;52.334;5.024;2023-11-19T09:47:05;100727.91;;;12.82;100.00
58955;BME280;45815;52.334;5.024;2023-11-19T09:49:33;100726.16;;;12.82;100.00
58955;BME280;45815;52.334;5.024;2023-11-19T09:52:00;100723.56;;;12.85;100.00
58955;BME280;45815;52.334;5.024;2023-11-19T09:54:25;100721.78;;;12.87;100.00
58955;BME280;45815;52.334;5.024;2023-11-19T09:56:50;100721.78;;;12.87;100.00
58955;BME280;45815;52.334;5.024;2023-11-19T09:59:17;100724.41;;;12.84;100.00
58955;BME280;45815;52.334;5.024;2023-11-19T10:01:45;100727.94;;;12.83;100.00
58955;BME280;45815;52.334;5.024;2023-11-19T10:04:15;100721.75;;;12.80;100.00
58955;BME280;45815;52.334;5.024;2023-11-19T10:06:42;100726.16;;;12.82;100.00
58955;BME280;45815;52.334;5.024;2023-11-19T10:09:07;100727.94;;;12.89;100.00
58955;BME280;45815;52.334;5.024;2023-11-19T10:11:33;100729.78;;;12.95;100.00
58955;BME280;45815;52.334;5.024;2023-11-19T10:13:59;100721.88;;;13.01;100.00
58955;BME280;45815;52.334;5.024;2023-11-19T10:16:29;100725.44;;;13.02;100.00
58955;BME280;45815;52.334;5.024;2023-11-19T10:18:55;100728.94;;;13.04;100.00
58955;BME280;45815;52.334;5.024;2023-11-19T10:21:21;100719.28;;;13.06;100.00
58955;BME280;45815;52.334;5.024;2023-11-19T10:23:56;100719.22;;;12.97;100.00
58955;BME280;45815;52.334;5.024;2023-11-19T10:26:23;100700.78;;;12.95;100.00
58955;BME280;45815;52.334;5.024;2023-11-19T10:28:49;100714.91;;;13.02;100.00
58955;BME280;45815;52.334;5.024;2023-11-19T10:31:16;100698.19;;;13.03;100.00
58955;BME280;45815;52.334;5.024;2023-11-19T10:33:42;100699.94;;;13.01;100.00
58955;BME280;45815;52.334;5.024;2023-11-19T10:36:10;100705.22;;;13.01;100.00
58955;BME280;45815;52.334;5.024;2023-11-19T10:38:37;100711.38;;;13.06;100.00
58955;BME280;45815;52.334;5.024;2023-11-19T10:41:03;100714.13;;;13.18;100.00
58955;BME280;45815;52.334;5.024;2023-11-19T10:43:29;100715.94;;;13.25;100.00
58955;BME280;45815;52.334;5.024;2023-11-19T10:46:09;100714.22;;;13.34;100.00
58955;BME280;45815;52.334;5.024;2023-11-19T10:48:34;100714.28;;;13.40;100.00
58955;BME280;45815;52.334;5.024;2023-11-19T10:51:01;100723.97;;;13.44;100.00
58955;BME280;45815;52.334;5.024;2023-11-19T10:53:29;100724.88;;;13.49;100.00
58955;BME280;45815;52.334;5.024;2023-11-19T10:55:57;100725.78;;;13.56;100.00
58955;BME280;45815;52.334;5.024;2023-11-19T10:58:24;100725.78;;;13.54;100.00
58955;BME280;45815;52.334;5.024;2023-11-19T11:00:57;100720.53;;;13.59;100.00
58955;BME280;45815;52.334;5.024;2023-11-19T11:03:30;100723.13;;;13.57;100.00
58955;BME280;45815;52.334;5.024;2023-11-19T11:06:03;100717.88;;;13.54;100.00
58955;BME280;45815;52.334;5.024;2023-11-19T11:08:30;100722.25;;;13.54;100.00
58955;BME280;45815;52.334;5.024;2023-11-19T11:10:56;100723.13;;;13.54;100.00
58955;BME280;45815;52.334;5.024;2023-11-19T11:13:24;100719.59;;;13.49;100.00
58955;BME280;45815;52.334;5.024;2023-11-19T11:15:50;100708.19;;;13.58;100.00
58955;BME280;45815;52.334;5.024;2023-11-19T11:18:15;100713.53;;;13.70;100.00
58955;BME280;45815;52.334;5.024;2023-11-19T11:20:44;100691.53;;;13.69;100.00
58955;BME280;45815;52.334;5.024;2023-11-19T11:37:48;100685.56;;;14.26;100.00
58955;BME280;45815;52.334;5.024;2023-11-19T11:40:15;100707.53;;;14.12;100.00
58955;BME280;45815;52.334;5.024;2023-11-19T11:42:44;100685.53;;;14.15;100.00
58955;BME280;45815;52.334;5.024;2023-11-19T11:45:11;100684.59;;;13.96;100.00
58955;BME280;45815;52.334;5.024;2023-11-19T11:50:11;100681.97;;;13.96;100.00
58955;BME280;45815;52.334;5.024;2023-11-19T11:55:24;100692.47;;;13.79;100.00
58955;BME280;45815;52.334;5.024;2023-11-19T11:57:50;100693.34;;;13.80;100.00
58955;BME280;45815;52.334;5.024;2023-11-19T12:02:59;100672.22;;;13.73;100.00
58955;BME280;45815;52.334;5.024;2023-11-19T12:05:26;100692.47;;;13.82;100.00
58955;BME280;45815;52.334;5.024;2023-11-19T12:08:00;100684.56;;;13.75;100.00
58955;BME280;45815;52.334;5.024;2023-11-19T12:10:29;100675.78;;;13.82;100.00
58955;BME280;45815;52.334;5.024;2023-11-19T12:13:00;100687.16;;;13.76;100.00
58955;BME280;45815;52.334;5.024;2023-11-19T12:15:26;100677.50;;;13.67;100.00
58955;BME280;45815;52.334;5.024;2023-11-19T12:17:53;100680.13;;;13.69;100.00
58955;BME280;45815;52.334;5.024;2023-11-19T12:20:22;100688.91;;;13.66;100.00
58955;BME280;45815;52.334;5.024;2023-11-19T12:22:48;100682.75;;;13.69;100.00
58955;BME280;45815;52.334;5.024;2023-11-19T12:25:15;100679.25;;;13.65;100.00
58955;BME280;45815;52.334;5.024;2023-11-19T12:27:48;100684.47;;;13.62;100.00
58955;BME280;45815;52.334;5.024;2023-11-19T12:30:23;100672.09;;;13.46;100.00
58955;BME280;45815;52.334;5.024;2023-11-19T12:32:50;100684.47;;;13.56;100.00
58955;BME280;45815;52.334;5.024;2023-11-19T12:35:16;100669.47;;;13.46;100.00
58955;BME280;45815;52.334;5.024;2023-11-19T12:37:46;100673.84;;;13.41;100.00
58955;BME280;45815;52.334;5.024;2023-11-19T12:40:22;100690.56;;;13.43;100.00
58955;BME280;45815;52.334;5.024;2023-11-19T12:42:49;100699.28;;;13.34;100.00
58955;BME280;45815;52.334;5.024;2023-11-19T12:45:15;100677.31;;;13.34;100.00
58955;BME280;45815;52.334;5.024;2023-11-19T12:47:41;100670.31;;;13.39;100.00
58955;BME280;45815;52.334;5.024;2023-11-19T12:50:08;100684.41;;;13.39;100.00
58955;BME280;45815;52.334;5.024;2023-11-19T12:52:37;100690.50;;;13.30;100.00
58955;BME280;45815;52.334;5.024;2023-11-19T12:55:28;100679.94;;;13.32;100.00
58955;BME280;45815;52.334;5.024;2023-11-19T12:57:54;100664.97;;;13.26;100.00
58955;BME280;45815;52.334;5.024;2023-11-19T13:00:25;100680.00;;;13.38;100.00
58955;BME280;45815;52.334;5.024;2023-11-19T13:02:51;100672.97;;;13.40;100.00